sensor_id;sensor_type;location;lat;lon;timestamp;pressure;altitude;pressure_sealevel;temperature;humidity
49377;BME280;35253;34.688;33.040;2023-05-08T00:00:23;100851.06;;;19.95;100.00
49377;BME280;35253;34.688;33.040;2023-05-08T00:02:49;100854.63;;;19.95;100.00
49377;BME280;35253;34.688;33.040;2023-05-08T00:05:15;100843.66;;;19.97;100.00
49377;BME280;35253;34.688;33.040;2023-05-08T00:07:41;100843.81;;;19.95;100.00
49377;BME280;35253;34.688;33.040;2023-05-08T00:10:07;100837.97;;;20.00;100.00
49377;BME280;35253;34.688;33.040;2023-05-08T00:12:34;100844.22;;;20.00;100.00
49377;BME280;35253;34.688;33.040;2023-05-08T00:15:00;100842.06;;;20.04;100.00
49377;BME280;35253;34.688;33.040;2023-05-08T00:17:26;100838.50;;;20.03;100.00
49377;BME280;35253;34.688;33.040;2023-05-08T00:19:52;100840.91;;;20.06;100.00
49377;BME280;35253;34.688;33.040;2023-05-08T00:22:18;100847.72;;;20.10;100.00
49377;BME280;35253;34.688;33.040;2023-05-08T00:24:44;100843.63;;;20.06;100.00
49377;BME280;35253;34.688;33.040;2023-05-08T00:27:09;100846.88;;;20.10;100.00
49377;BME280;35253;34.688;33.040;2023-05-08T00:29:35;100846.06;;;20.09;100.00
49377;BME280;35253;34.688;33.040;2023-05-08T00:32:01;100844.34;;;20.08;100.00
49377;BME280;35253;34.688;33.040;2023-05-08T00:34:27;100840.91;;;20.06;100.00
49377;BME280;35253;34.688;33.040;2023-05-08T00:36:55;100841.63;;;20.08;100.00
49377;BME280;35253;34.688;33.040;2023-05-08T00:39:21;100839.91;;;20.07;100.00
49377;BME280;35253;34.688;33.040;2023-05-08T00:41:47;100840.63;;;20.09;100.00
49377;BME280;35253;34.688;33.040;2023-05-08T00:44:12;100847.06;;;20.08;100.00
49377;BME280;35253;34.688;33.040;2023-05-08T00:46:39;100840.06;;;20.06;100.00
49377;BME280;35253;34.688;33.040;2023-05-08T00:49:05;100846.63;;;20.03;100.00
49377;BME280;35253;34.688;33.040;2023-05-08T00:51:34;100840.50;;;20.01;100.00
49377;BME280;35253;34.688;33.040;2023-05-08T00:54:00;100848.63;;;20.01;100.00
49377;BME280;35253;34.688;33.040;2023-05-08T00:56:27;100838.38;;;20.05;100.00
49377;BME280;35253;34.688;33.040;2023-05-08T00:58:54;100847.19;;;20.07;100.00
49377;BME280;35253;34.688;33.040;2023-05-08T01:01:20;100844.63;;;20.05;100.00
49377;BME280;35253;34.688;33.040;2023-05-08T01:03:45;100849.44;;;20.11;100.00
49377;BME280;35253;34.688;33.040;2023-05-08T01:06:11;100844.03;;;20.11;100.00
49377;BME280;35253;34.688;33.040;2023-05-08T01:08:37;100846.06;;;20.09;100.00
49377;BME280;35253;34.688;33.040;2023-05-08T01:21:54;100831.38;;;20.02;100.00
49377;BME280;35253;34.688;33.040;2023-05-08T01:32:45;100832.66;;;20.08;100.00
49377;BME280;35253;34.688;33.040;2023-05-08T01:35:26;100832.53;;;20.09;100.00
49377;BME280;35253;34.688;33.040;2023-05-08T01:40:39;100833.22;;;20.02;100.00
49377;BME280;35253;34.688;33.040;2023-05-08T01:45:50;100825.28;;;20.00;100.00
49377;BME280;35253;34.688;33.040;2023-05-08T01:48:38;100833.41;;;20.00;100.00
49377;BME280;35253;34.688;33.040;2023-05-08T01:51:16;100826.72;;;19.95;100.00
49377;BME280;35253;34.688;33.040;2023-05-08T01:53:50;100824.44;;;19.90;100.00
49377;BME280;35253;34.688;33.040;2023-05-08T01:56:19;100826.44;;;19.88;100.00
49377;BME280;35253;34.688;33.040;2023-05-08T01:58:48;100825.44;;;19.89;100.00
49377;BME280;35253;34.688;33.040;2023-05-08T02:01:17;100833.56;;;19.89;100.00
49377;BME280;35253;34.688;33.040;2023-05-08T02:03:45;100830.19;;;19.68;100.00
49377;BME280;35253;34.688;33.040;2023-05-08T02:06:13;100839.03;;;19.70;100.00
49377;BME280;35253;34.688;33.040;2023-05-08T02:08:42;100827.50;;;19.68;100.00
49377;BME280;35253;34.688;33.040;2023-05-08T02:11:10;100827.19;;;19.71;100.00
49377;BME280;35253;34.688;33.040;2023-05-08T02:13:38;100830.78;;;19.62;100.00
49377;BME280;35253;34.688;33.040;2023-05-08T02:16:07;100836.19;;;19.62;100.00
49377;BME280;35253;34.688;33.040;2023-05-08T02:18:33;100832.78;;;19.69;100.00
49377;BME280;35253;34.688;33.040;2023-05-08T02:21:03;100829.47;;;19.66;100.00
49377;BME280;35253;34.688;33.040;2023-05-08T02:23:32;100830.06;;;19.60;100.00
49377;BME280;35253;34.688;33.040;2023-05-08T02:26:00;100835.75;;;19.66;100.00
49377;BME280;35253;34.688;33.040;2023-05-08T02:28:28;100830.78;;;19.62;100.00
49377;BME280;35253;34.688;33.040;2023-05-08T02:30:55;100834.50;;;19.61;100.00
49377;BME280;35253;34.688;33.040;2023-05-08T02:33:23;100834.75;;;19.58;100.00
49377;BME280;35253;34.688;33.040;2023-05-08T02:35:50;100837.63;;;19.47;100.00
49377;BME280;35253;34.688;33.040;2023-05-08T02:38:19;100833.75;;;19.40;100.00
49377;BME280;35253;34.688;33.040;2023-05-08T02:40:53;100837.34;;;19.30;100.00
49377;BME280;35253;34.688;33.040;2023-05-08T02:43:20;100846.00;;;19.24;100.00
49377;BME280;35253;34.688;33.040;2023-05-08T02:45:54;100845.00;;;19.25;100.00
49377;BME280;35253;34.688;33.040;2023-05-08T02:49:00;100847.41;;;19.09;100.00
49377;BME280;35253;34.688;33.040;2023-05-08T02:51:49;100845.72;;;19.08;100.00
49377;BME280;35253;34.688;33.040;2023-05-08T02:57:05;100852.63;;;18.91;100.00
49377;BME280;35253;34.688;33.040;2023-05-08T02:59:39;100850.94;;;19.00;100.00
49377;BME280;35253;34.688;33.040;2023-05-08T03:02:14;100853.38;;;18.94;100.00
49377;BME280;35253;34.688;33.040;2023-05-08T03:04:52;100856.19;;;18.92;100.00
49377;BME280;35253;34.688;33.040;2023-05-08T03:07:22;100850.13;;;19.00;100.00
49377;BME280;35253;34.688;33.040;2023-05-08T03:09:49;100866.06;;;19.12;100.00
49377;BME280;35253;34.688;33.040;2023-05-08T03:12:21;100861.78;;;19.19;100.00
49377;BME280;35253;34.688;33.040;2023-05-08T03:15:06;100856.09;;;19.32;100.00
49377;BME280;35253;34.688;33.040;2023-05-08T03:17:34;100870.91;;;19.38;100.00
49377;BME280;35253;34.688;33.040;2023-05-08T03:20:06;100864.69;;;19.47;100.00
49377;BME280;35253;34.688;33.040;2023-05-08T03:22:36;100867.81;;;19.52;100.00
49377;BME280;35253;34.688;33.040;2023-05-08T03:25:05;100862.09;;;19.55;100.00
49377;BME280;35253;34.688;33.040;2023-05-08T03:27:34;100859.22;;;19.66;100.00
49377;BME280;35253;34.688;33.040;2023-05-08T03:30:03;100867.78;;;19.71;100.00
49377;BME280;35253;34.688;33.040;2023-05-08T03:32:30;100874.34;;;19.78;100.00
49377;BME280;35253;34.688;33.040;2023-05-08T03:34:58;100874.59;;;19.85;100.00
49377;BME280;35253;34.688;33.040;2023-05-08T03:37:29;100881.41;;;19.89;100.00
49377;BME280;35253;34.688;33.040;2023-05-08T03:39:55;100880.00;;;19.94;100.00
49377;BME280;35253;34.688;33.040;2023-05-08T03:42:22;100878.81;;;19.97;100.00
49377;BME280;35253;34.688;33.040;2023-05-08T03:44:50;100882.81;;;20.02;100.00
49377;BME280;35253;34.688;33.040;2023-05-08T03:47:17;100876.00;;;19.98;100.00
49377;BME280;35253;34.688;33.040;2023-05-08T03:49:44;100882.06;;;20.10;100.00
49377;BME280;35253;34.688;33.040;2023-05-08T03:52:14;100883.66;;;20.12;100.00
49377;BME280;35253;34.688;33.040;2023-05-08T03:54:41;100878.81;;;20.06;100.00
49377;BME280;35253;34.688;33.040;2023-05-08T03:57:07;100879.53;;;20.08;100.00
49377;BME280;35253;34.688;33.040;2023-05-08T03:59:51;100879.97;;;20.04;100.00
49377;BME280;35253;34.688;33.040;2023-05-08T04:02:28;100893.31;;;20.15;100.00
49377;BME280;35253;34.688;33.040;2023-05-08T04:05:04;100894.72;;;20.19;100.00
49377;BME280;35253;34.688;33.040;2023-05-08T04:07:46;100894.59;;;20.20;100.00
49377;BME280;35253;34.688;33.040;2023-05-08T04:10:41;100893.72;;;20.20;100.00
49377;BME280;35253;34.688;33.040;2023-05-08T04:13:07;100894.72;;;20.19;100.00
49377;BME280;35253;34.688;33.040;2023-05-08T04:15:37;100903.03;;;20.17;100.00
49377;BME280;35253;34.688;33.040;2023-05-08T04:18:13;100904.69;;;20.28;100.00
49377;BME280;35253;34.688;33.040;2023-05-08T04:20:40;100905.53;;;20.38;100.00
49377;BME280;35253;34.688;33.040;2023-05-08T04:23:08;100909.94;;;20.49;100.00
49377;BME280;35253;34.688;33.040;2023-05-08T04:25:37;100901.19;;;20.55;100.00
49377;BME280;35253;34.688;33.040;2023-05-08T04:28:05;100908.72;;;20.61;100.00
49377;BME280;35253;34.688;33.040;2023-05-08T04:30:31;100897.59;;;20.64;100.00
49377;BME280;35253;34.688;33.040;2023-05-08T04:32:57;100906.84;;;20.71;100.00
49377;BME280;35253;34.688;33.040;2023-05-08T04:35:23;100906.22;;;20.77;100.00
49377;BME280;35253;34.688;33.040;2023-05-08T04:37:49;100900.50;;;20.80;100.00
49377;BME280;35253;34.688;33.040;2023-05-08T04:40:15;100905.19;;;20.88;100.00
49377;BME280;35253;34.688;33.040;2023-05-08T04:42:41;100907.22;;;20.76;100.00
49377;BME280;35253;34.688;33.040;2023-05-08T04:45:12;100904.22;;;20.79;100.00
49377;BME280;35253;34.688;33.040;2023-05-08T04:47:38;100904.47;;;20.86;100.00
49377;BME280;35253;34.688;33.040;2023-05-08T04:50:04;100907.72;;;20.89;100.00
49377;BME280;35253;34.688;33.040;2023-05-08T04:52:30;100903.69;;;20.93;100.00
49377;BME280;35253;34.688;33.040;2023-05-08T04:54:55;100904.72;;;20.92;100.00
49377;BME280;35253;34.688;33.040;2023-05-08T04:57:21;100912.09;;;21.00;100.00
49377;BME280;35253;34.688;33.040;2023-05-08T04:59:47;100914.56;;;21.21;100.00
49377;BME280;35253;34.688;33.040;2023-05-08T05:02:13;100913.41;;;21.41;100.00
49377;BME280;35253;34.688;33.040;2023-05-08T05:04:38;100916.03;;;21.68;100.00
49377;BME280;35253;34.688;33.040;2023-05-08T05:07:04;100909.38;;;21.80;100.00
49377;BME280;35253;34.688;33.040;2023-05-08T05:09:30;100916.00;;;21.86;100.00
49377;BME280;35253;34.688;33.040;2023-05-08T05:11:56;100915.34;;;22.01;100.00
49377;BME280;35253;34.688;33.040;2023-05-08T05:14:21;100908.84;;;22.20;100.00
49377;BME280;35253;34.688;33.040;2023-05-08T05:16:47;100914.25;;;22.46;100.00
49377;BME280;35253;34.688;33.040;2023-05-08T05:19:13;100919.78;;;22.62;100.00
49377;BME280;35253;34.688;33.040;2023-05-08T05:21:38;100917.53;;;22.83;100.00
49377;BME280;35253;34.688;33.040;2023-05-08T05:24:05;100921.94;;;22.84;100.00
49377;BME280;35253;34.688;33.040;2023-05-08T05:26:31;100916.03;;;22.89;100.00
49377;BME280;35253;34.688;33.040;2023-05-08T05:28:57;100921.31;;;22.99;100.00
49377;BME280;35253;34.688;33.040;2023-05-08T05:31:23;100917.25;;;23.03;100.00
49377;BME280;35253;34.688;33.040;2023-05-08T05:33:48;100923.94;;;23.16;100.00
49377;BME280;35253;34.688;33.040;2023-05-08T05:36:14;100924.44;;;23.20;100.00
49377;BME280;35253;34.688;33.040;2023-05-08T05:38:40;100921.38;;;23.23;100.00
49377;BME280;35253;34.688;33.040;2023-05-08T05:41:06;100928.22;;;23.35;100.00
49377;BME280;35253;34.688;33.040;2023-05-08T05:43:32;100928.41;;;23.42;100.00
49377;BME280;35253;34.688;33.040;2023-05-08T05:46:05;100931.44;;;23.30;100.00
49377;BME280;35253;34.688;33.040;2023-05-08T05:48:30;100935.56;;;23.43;100.00
49377;BME280;35253;34.688;33.040;2023-05-08T05:50:56;100926.72;;;23.49;100.00
49377;BME280;35253;34.688;33.040;2023-05-08T05:53:22;100930.31;;;23.49;100.00
49377;BME280;35253;34.688;33.040;2023-05-08T05:55:48;100933.53;;;23.45;100.00
49377;BME280;35253;34.688;33.040;2023-05-08T05:58:13;100935.88;;;23.40;100.00
49377;BME280;35253;34.688;33.040;2023-05-08T06:00:41;100943.50;;;23.28;100.00
49377;BME280;35253;34.688;33.040;2023-05-08T06:03:07;100939.53;;;23.06;100.00
49377;BME280;35253;34.688;33.040;2023-05-08T06:05:35;100930.06;;;23.26;100.00
49377;BME280;35253;34.688;33.040;2023-05-08T06:08:01;100935.63;;;23.17;100.00
49377;BME280;35253;34.688;33.040;2023-05-08T06:10:26;100941.78;;;23.27;100.00
49377;BME280;35253;34.688;33.040;2023-05-08T06:12:52;100952.03;;;23.33;100.00
49377;BME280;35253;34.688;33.040;2023-05-08T06:15:19;100942.28;;;22.72;100.00
49377;BME280;35253;34.688;33.040;2023-05-08T06:17:45;100941.09;;;22.75;100.00
49377;BME280;35253;34.688;33.040;2023-05-08T06:20:11;100943.84;;;22.83;100.00
49377;BME280;35253;34.688;33.040;2023-05-08T06:22:37;100938.16;;;22.17;100.00
49377;BME280;35253;34.688;33.040;2023-05-08T06:25:05;100944.44;;;22.17;100.00
49377;BME280;35253;34.688;33.040;2023-05-08T06:27:34;100938.88;;;22.70;100.00
49377;BME280;35253;34.688;33.040;2023-05-08T06:30:00;100943.97;;;22.73;100.00
49377;BME280;35253;34.688;33.040;2023-05-08T06:32:26;100941.63;;;22.78;100.00
49377;BME280;35253;34.688;33.040;2023-05-08T06:34:52;100942.13;;;23.24;100.00
49377;BME280;35253;34.688;33.040;2023-05-08T06:37:18;100943.94;;;23.57;100.00
49377;BME280;35253;34.688;33.040;2023-05-08T06:39:43;100951.28;;;23.81;100.00
49377;BME280;35253;34.688;33.040;2023-05-08T06:42:09;100949.75;;;22.19;100.00
49377;BME280;35253;34.688;33.040;2023-05-08T06:44:35;100946.94;;;22.62;100.00
49377;BME280;35253;34.688;33.040;2023-05-08T06:47:01;100937.31;;;23.02;100.00
49377;BME280;35253;34.688;33.040;2023-05-08T06:49:27;100940.44;;;22.03;100.00
49377;BME280;35253;34.688;33.040;2023-05-08T06:51:53;100949.09;;;22.76;100.00
49377;BME280;35253;34.688;33.040;2023-05-08T06:54:18;100947.44;;;23.33;100.00
49377;BME280;35253;34.688;33.040;2023-05-08T06:56:44;100950.06;;;23.67;100.00
49377;BME280;35253;34.688;33.040;2023-05-08T06:59:10;100944.28;;;23.62;100.00
49377;BME280;35253;34.688;33.040;2023-05-08T07:01:36;100938.84;;;23.54;100.00
49377;BME280;35253;34.688;33.040;2023-05-08T07:04:03;100940.19;;;23.66;100.00
49377;BME280;35253;34.688;33.040;2023-05-08T07:06:29;100944.97;;;23.64;100.00
49377;BME280;35253;34.688;33.040;2023-05-08T07:08:58;100944.19;;;22.80;100.00
49377;BME280;35253;34.688;33.040;2023-05-08T07:11:24;100946.72;;;23.23;100.00
49377;BME280;35253;34.688;33.040;2023-05-08T07:13:50;100948.47;;;23.41;100.00
49377;BME280;35253;34.688;33.040;2023-05-08T07:16:16;100949.03;;;23.52;100.00
49377;BME280;35253;34.688;33.040;2023-05-08T07:18:42;100951.78;;;23.10;100.00
49377;BME280;35253;34.688;33.040;2023-05-08T07:21:09;100957.50;;;22.65;100.00
49377;BME280;35253;34.688;33.040;2023-05-08T07:23:34;100951.88;;;22.33;100.00
49377;BME280;35253;34.688;33.040;2023-05-08T07:26:00;100956.84;;;22.97;100.00
49377;BME280;35253;34.688;33.040;2023-05-08T07:28:26;100961.53;;;23.29;100.00
49377;BME280;35253;34.688;33.040;2023-05-08T07:30:52;100958.25;;;23.59;100.00
49377;BME280;35253;34.688;33.040;2023-05-08T07:33:18;100963.38;;;23.87;100.00
49377;BME280;35253;34.688;33.040;2023-05-08T07:35:43;100968.47;;;23.98;100.00
49377;BME280;35253;34.688;33.040;2023-05-08T07:38:09;100974.38;;;22.51;100.00
49377;BME280;35253;34.688;33.040;2023-05-08T07:40:35;100981.88;;;23.17;100.00
49377;BME280;35253;34.688;33.040;2023-05-08T07:43:01;100970.00;;;23.18;100.00
49377;BME280;35253;34.688;33.040;2023-05-08T07:45:27;100986.97;;;23.54;100.00
49377;BME280;35253;34.688;33.040;2023-05-08T07:47:55;100974.91;;;23.56;100.00
49377;BME280;35253;34.688;33.040;2023-05-08T07:50:22;100985.19;;;22.69;100.00
49377;BME280;35253;34.688;33.040;2023-05-08T07:52:48;100985.31;;;23.19;100.00
49377;BME280;35253;34.688;33.040;2023-05-08T07:55:14;100977.28;;;22.24;100.00
49377;BME280;35253;34.688;33.040;2023-05-08T07:57:41;100998.00;;;21.54;100.00
49377;BME280;35253;34.688;33.040;2023-05-08T08:00:08;100988.75;;;21.47;100.00
49377;BME280;35253;34.688;33.040;2023-05-08T08:02:35;100985.53;;;22.40;100.00
49377;BME280;35253;34.688;33.040;2023-05-08T08:05:01;100987.25;;;22.41;100.00
49377;BME280;35253;34.688;33.040;2023-05-08T08:07:26;100988.09;;;22.93;100.00
49377;BME280;35253;34.688;33.040;2023-05-08T08:09:52;100992.81;;;23.25;100.00
49377;BME280;35253;34.688;33.040;2023-05-08T08:12:18;100990.56;;;23.54;100.00
49377;BME280;35253;34.688;33.040;2023-05-08T08:14:45;100984.91;;;23.06;100.00
49377;BME280;35253;34.688;33.040;2023-05-08T08:17:11;100987.97;;;22.51;100.00
49377;BME280;35253;34.688;33.040;2023-05-08T08:19:37;100980.78;;;22.94;100.00
49377;BME280;35253;34.688;33.040;2023-05-08T08:22:02;100977.09;;;23.45;100.00
49377;BME280;35253;34.688;33.040;2023-05-08T08:24:28;100980.03;;;23.67;100.00
49377;BME280;35253;34.688;33.040;2023-05-08T08:26:54;100989.25;;;23.83;100.00
49377;BME280;35253;34.688;33.040;2023-05-08T08:29:20;100996.06;;;23.95;100.00
49377;BME280;35253;34.688;33.040;2023-05-08T08:31:46;100989.41;;;23.97;100.00
49377;BME280;35253;34.688;33.040;2023-05-08T08:34:11;100988.56;;;23.97;100.00
49377;BME280;35253;34.688;33.040;2023-05-08T08:36:38;100988.03;;;23.19;100.00
49377;BME280;35253;34.688;33.040;2023-05-08T08:39:04;100992.34;;;22.96;100.00
49377;BME280;35253;34.688;33.040;2023-05-08T08:41:30;100998.28;;;23.33;100.00
49377;BME280;35253;34.688;33.040;2023-05-08T08:43:55;100991.38;;;23.05;100.00
49377;BME280;35253;34.688;33.040;2023-05-08T08:46:26;100989.19;;;23.58;100.00
49377;BME280;35253;34.688;33.040;2023-05-08T08:48:54;100985.81;;;23.72;100.00
49377;BME280;35253;34.688;33.040;2023-05-08T08:51:27;100989.09;;;24.08;100.00
49377;BME280;35253;34.688;33.040;2023-05-08T08:54:13;100985.69;;;24.31;100.00
49377;BME280;35253;34.688;33.040;2023-05-08T08:56:40;100985.50;;;24.48;100.00
49377;BME280;35253;34.688;33.040;2023-05-08T08:59:10;100985.44;;;24.73;100.00
49377;BME280;35253;34.688;33.040;2023-05-08T09:01:39;100984.75;;;24.87;100.00
49377;BME280;35253;34.688;33.040;2023-05-08T09:04:05;100984.00;;;25.09;100.00
49377;BME280;35253;34.688;33.040;2023-05-08T09:06:35;100979.16;;;25.19;100.00
49377;BME280;35253;34.688;33.040;2023-05-08T09:09:02;100978.63;;;25.24;100.00
49377;BME280;35253;34.688;33.040;2023-05-08T09:11:28;100972.41;;;25.38;100.00
49377;BME280;35253;34.688;33.040;2023-05-08T09:13:55;100984.84;;;25.40;100.00
49377;BME280;35253;34.688;33.040;2023-05-08T09:16:21;100981.22;;;25.48;100.00
49377;BME280;35253;34.688;33.040;2023-05-08T09:18:48;100975.13;;;24.44;100.00
49377;BME280;35253;34.688;33.040;2023-05-08T09:21:13;100965.59;;;25.03;100.00
49377;BME280;35253;34.688;33.040;2023-05-08T09:23:59;100963.13;;;25.16;100.00
49377;BME280;35253;34.688;33.040;2023-05-08T09:26:32;100967.38;;;25.49;100.00
49377;BME280;35253;34.688;33.040;2023-05-08T09:29:18;100957.84;;;25.53;100.00
49377;BME280;35253;34.688;33.040;2023-05-08T09:31:53;100968.31;;;24.23;100.00
49377;BME280;35253;34.688;33.040;2023-05-08T09:34:28;100961.13;;;24.14;100.00
49377;BME280;35253;34.688;33.040;2023-05-08T09:36:55;100963.75;;;24.95;100.00
49377;BME280;35253;34.688;33.040;2023-05-08T09:39:36;100965.25;;;23.86;100.00
49377;BME280;35253;34.688;33.040;2023-05-08T09:42:05;100952.22;;;25.16;100.00
49377;BME280;35253;34.688;33.040;2023-05-08T09:44:49;100951.63;;;24.98;100.00
49377;BME280;35253;34.688;33.040;2023-05-08T09:52:31;100953.25;;;26.52;100.00
49377;BME280;35253;34.688;33.040;2023-05-08T09:55:08;100960.03;;;26.56;100.00
49377;BME280;35253;34.688;33.040;2023-05-08T09:57:36;100958.56;;;26.97;100.00
49377;BME280;35253;34.688;33.040;2023-05-08T10:00:08;100958.13;;;26.94;100.00
49377;BME280;35253;34.688;33.040;2023-05-08T10:02:35;100958.06;;;27.23;100.00
49377;BME280;35253;34.688;33.040;2023-05-08T10:05:02;100961.50;;;27.46;100.00
49377;BME280;35253;34.688;33.040;2023-05-08T10:07:32;100964.34;;;27.53;100.00
49377;BME280;35253;34.688;33.040;2023-05-08T10:10:00;100959.56;;;27.25;100.00
49377;BME280;35253;34.688;33.040;2023-05-08T10:12:27;100954.41;;;26.86;100.00
49377;BME280;35253;34.688;33.040;2023-05-08T10:14:53;100948.47;;;26.98;100.00
49377;BME280;35253;34.688;33.040;2023-05-08T10:17:25;100946.66;;;27.05;100.00
49377;BME280;35253;34.688;33.040;2023-05-08T10:19:58;100942.91;;;26.62;100.00
49377;BME280;35253;34.688;33.040;2023-05-08T10:22:27;100946.25;;;26.34;100.00
49377;BME280;35253;34.688;33.040;2023-05-08T10:24:57;100937.16;;;26.19;100.00
49377;BME280;35253;34.688;33.040;2023-05-08T10:27:40;100945.16;;;26.06;100.00
49377;BME280;35253;34.688;33.040;2023-05-08T10:30:09;100933.88;;;25.64;100.00
49377;BME280;35253;34.688;33.040;2023-05-08T10:32:39;100934.28;;;25.52;100.00
49377;BME280;35253;34.688;33.040;2023-05-08T10:35:09;100938.13;;;25.66;100.00
49377;BME280;35253;34.688;33.040;2023-05-08T10:37:36;100934.06;;;25.62;100.00
49377;BME280;35253;34.688;33.040;2023-05-08T10:40:03;100928.31;;;25.49;100.00
49377;BME280;35253;34.688;33.040;2023-05-08T10:42:30;100939.03;;;25.50;100.00
49377;BME280;35253;34.688;33.040;2023-05-08T10:44:56;100932.16;;;25.09;100.00
49377;BME280;35253;34.688;33.040;2023-05-08T10:47:55;100935.38;;;25.12;100.00
49377;BME280;35253;34.688;33.040;2023-05-08T10:53:35;100928.81;;;25.52;100.00
49377;BME280;35253;34.688;33.040;2023-05-08T10:56:03;100934.38;;;26.05;100.00
49377;BME280;35253;34.688;33.040;2023-05-08T10:58:34;100931.00;;;26.40;100.00
49377;BME280;35253;34.688;33.040;2023-05-08T11:03:44;100928.09;;;25.58;100.00
49377;BME280;35253;34.688;33.040;2023-05-08T11:06:11;100925.66;;;25.64;100.00
49377;BME280;35253;34.688;33.040;2023-05-08T11:08:57;100922.31;;;25.00;100.00
49377;BME280;35253;34.688;33.040;2023-05-08T11:11:30;100930.06;;;25.11;100.00
49377;BME280;35253;34.688;33.040;2023-05-08T11:19:24;100916.88;;;24.84;100.00
49377;BME280;35253;34.688;33.040;2023-05-08T11:25:00;100916.03;;;23.63;100.00
49377;BME280;35253;34.688;33.040;2023-05-08T11:38:34;100905.59;;;23.34;100.00
49377;BME280;35253;34.688;33.040;2023-05-08T11:41:07;100916.34;;;23.44;100.00
49377;BME280;35253;34.688;33.040;2023-05-08T11:46:06;100912.22;;;23.32;100.00
49377;BME280;35253;34.688;33.040;2023-05-08T11:48:34;100905.41;;;23.20;100.00
49377;BME280;35253;34.688;33.040;2023-05-08T11:51:03;100908.13;;;23.20;100.00
49377;BME280;35253;34.688;33.040;2023-05-08T11:53:29;100905.06;;;23.31;100.00
49377;BME280;35253;34.688;33.040;2023-05-08T11:55:56;100902.25;;;23.57;100.00
49377;BME280;35253;34.688;33.040;2023-05-08T11:58:23;100899.47;;;23.32;100.00
49377;BME280;35253;34.688;33.040;2023-05-08T12:00:49;100897.00;;;23.55;100.00
49377;BME280;35253;34.688;33.040;2023-05-08T12:03:16;100901.19;;;23.33;100.00
49377;BME280;35253;34.688;33.040;2023-05-08T12:05:43;100899.88;;;23.54;100.00
49377;BME280;35253;34.688;33.040;2023-05-08T12:08:09;100897.91;;;23.14;100.00
49377;BME280;35253;34.688;33.040;2023-05-08T12:13:20;100904.72;;;23.26;100.00
49377;BME280;35253;34.688;33.040;2023-05-08T12:15:47;100894.66;;;23.10;100.00
49377;BME280;35253;34.688;33.040;2023-05-08T12:18:14;100889.94;;;23.28;100.00
49377;BME280;35253;34.688;33.040;2023-05-08T12:20:41;100896.03;;;23.14;100.00
49377;BME280;35253;34.688;33.040;2023-05-08T12:23:07;100893.50;;;23.21;100.00
49377;BME280;35253;34.688;33.040;2023-05-08T12:25:36;100892.81;;;23.27;100.00
49377;BME280;35253;34.688;33.040;2023-05-08T12:28:04;100892.81;;;23.11;100.00
49377;BME280;35253;34.688;33.040;2023-05-08T12:30:30;100881.06;;;23.10;100.00
49377;BME280;35253;34.688;33.040;2023-05-08T12:32:56;100893.06;;;22.91;100.00
49377;BME280;35253;34.688;33.040;2023-05-08T12:35:22;100874.13;;;23.24;100.00
49377;BME280;35253;34.688;33.040;2023-05-08T12:37:50;100878.94;;;23.95;100.00
49377;BME280;35253;34.688;33.040;2023-05-08T12:40:28;100875.88;;;23.57;100.00
49377;BME280;35253;34.688;33.040;2023-05-08T12:42:55;100871.63;;;23.71;100.00
49377;BME280;35253;34.688;33.040;2023-05-08T12:45:23;100871.09;;;23.84;100.00
49377;BME280;35253;34.688;33.040;2023-05-08T12:47:51;100865.00;;;23.90;100.00
49377;BME280;35253;34.688;33.040;2023-05-08T12:50:19;100854.75;;;24.00;100.00
49377;BME280;35253;34.688;33.040;2023-05-08T12:52:45;100875.53;;;24.09;100.00
49377;BME280;35253;34.688;33.040;2023-05-08T12:55:53;100868.69;;;24.13;100.00
49377;BME280;35253;34.688;33.040;2023-05-08T12:58:23;100869.41;;;24.62;100.00
49377;BME280;35253;34.688;33.040;2023-05-08T13:00:51;100870.09;;;24.17;100.00
49377;BME280;35253;34.688;33.040;2023-05-08T13:03:26;100867.19;;;24.02;100.00
49377;BME280;35253;34.688;33.040;2023-05-08T13:05:54;100870.09;;;23.85;100.00
49377;BME280;35253;34.688;33.040;2023-05-08T13:08:29;100862.25;;;23.65;100.00
49377;BME280;35253;34.688;33.040;2023-05-08T13:10:55;100859.53;;;23.65;100.00
49377;BME280;35253;34.688;33.040;2023-05-08T13:13:22;100853.91;;;23.43;100.00
49377;BME280;35253;34.688;33.040;2023-05-08T13:15:49;100865.81;;;23.33;100.00
49377;BME280;35253;34.688;33.040;2023-05-08T13:18:16;100860.75;;;23.55;100.00
49377;BME280;35253;34.688;33.040;2023-05-08T13:20:42;100857.19;;;23.54;100.00
49377;BME280;35253;34.688;33.040;2023-05-08T13:23:09;100860.75;;;23.63;100.00
49377;BME280;35253;34.688;33.040;2023-05-08T13:25:36;100857.34;;;23.45;100.00
49377;BME280;35253;34.688;33.040;2023-05-08T13:28:03;100860.19;;;23.27;100.00
49377;BME280;35253;34.688;33.040;2023-05-08T13:30:29;100847.94;;;23.39;100.00
49377;BME280;35253;34.688;33.040;2023-05-08T13:32:55;100847.59;;;23.26;100.00
49377;BME280;35253;34.688;33.040;2023-05-08T13:35:21;100849.28;;;23.35;100.00
49377;BME280;35253;34.688;33.040;2023-05-08T13:37:47;100844.53;;;23.21;100.00
49377;BME280;35253;34.688;33.040;2023-05-08T13:40:13;100844.97;;;22.84;100.00